Time;durP1;ratioP1;P1;durP2;ratioP2;P2;SDS_P1;SDS_P2;PMS_P1;PMS_P2;Temp;Humidity;BMP_temperature;BMP_pressure;BME280_temperature;BME280_humidity;BME280_pressure;Samples;Min_cycle;Max_cycle;Signal;HPM_P1;HPM_P2
2022/12/23 00:00:19;;;;;;;25.50;18.85;;;;;;;4.56;100.00;99164.53;5027238;28;20022;-79
2022/12/23 00:02:45;;;;;;;23.20;15.40;;;;;;;4.59;100.00;99169.47;5020852;28;20041;-79
2022/12/23 00:05:11;;;;;;;23.48;13.52;;;;;;;4.64;100.00;99171.69;5021347;28;20114;-79
2022/12/23 00:07:37;;;;;;;14.85;9.35;;;;;;;4.67;100.00;99168.78;5013649;28;20041;-85
2022/12/23 00:10:04;;;;;;;19.02;11.10;;;;;;;4.68;100.00;99161.78;5021458;28;20082;-84
2022/12/23 00:15:14;;;;;;;25.25;14.50;;;;;;;4.62;100.00;99141.41;4970109;28;21120;-84
2022/12/23 00:17:42;;;;;;;26.42;16.58;;;;;;;4.63;100.00;99133.41;5021795;28;20037;-79
2022/12/23 00:20:12;;;;;;;20.77;14.55;;;;;;;4.58;100.00;99135.59;5017823;28;20666;-79
2022/12/23 00:25:39;;;;;;;20.40;13.05;;;;;;;4.44;100.00;99127.19;5021587;28;20037;-78
2022/12/23 00:28:10;;;;;;;21.42;11.65;;;;;;;4.41;100.00;99129.25;5006096;28;20041;-79
2022/12/23 00:30:50;;;;;;;61.72;10.45;;;;;;;4.33;100.00;99119.50;5001847;28;20072;-79
2022/12/23 00:33:19;;;;;;;30.58;9.32;;;;;;;4.16;100.00;99118.34;5020369;28;20064;-84
2022/12/23 00:35:45;;;;;;;56.40;10.30;;;;;;;4.04;100.00;99110.66;5021488;28;20037;-84
2022/12/23 00:38:11;;;;;;;223.75;12.30;;;;;;;3.91;100.00;99097.81;5038248;28;20069;-84
2022/12/23 00:43:21;;;;;;;272.75;14.43;;;;;;;3.75;100.00;99090.47;5032665;28;20041;-85
2022/12/23 00:45:47;;;;;;;162.98;10.43;;;;;;;3.71;100.00;99081.28;5023777;28;20379;-84
2022/12/23 00:51:16;;;;;;;239.05;10.43;;;;;;;3.43;100.00;99062.75;5020839;28;20048;-84
2022/12/23 00:53:41;;;;;;;203.70;8.82;;;;;;;3.21;100.00;99054.97;5021817;28;20045;-84
2022/12/23 00:56:07;;;;;;;213.65;8.90;;;;;;;3.01;100.00;99048.03;5020630;28;20520;-84
2022/12/23 00:58:33;;;;;;;476.33;14.85;;;;;;;2.94;100.00;99040.72;5008810;28;20823;-84
2022/12/23 01:06:27;;;;;;;204.10;12.40;;;;;;;2.93;100.00;99043.44;5042995;28;20040;-83
2022/12/23 01:08:53;;;;;;;201.43;13.68;;;;;;;2.96;100.00;99032.75;5024283;28;20038;-84
2022/12/23 01:11:18;;;;;;;192.75;11.13;;;;;;;2.94;100.00;99032.03;4992246;28;20127;-84
2022/12/23 01:13:44;;;;;;;144.73;9.30;;;;;;;2.93;100.00;99030.41;5024635;28;20029;-85
2022/12/23 01:16:10;;;;;;;298.83;14.15;;;;;;;2.91;100.00;99037.53;5025565;28;20088;-84
2022/12/23 01:18:36;;;;;;;192.13;12.63;;;;;;;2.93;100.00;99036.44;5000271;28;20120;-79
2022/12/23 01:21:05;;;;;;;130.73;9.93;;;;;;;2.91;100.00;99025.31;5025547;28;20143;-79
2022/12/23 01:23:31;;;;;;;216.18;9.57;;;;;;;2.86;100.00;99024.88;5024848;28;20120;-84
2022/12/23 01:25:59;;;;;;;202.95;10.73;;;;;;;2.81;100.00;99029.63;5009069;28;20088;-84
2022/12/23 01:28:27;;;;;;;136.25;8.02;;;;;;;2.77;100.00;99023.03;5025799;28;20494;-79
2022/12/23 01:30:53;;;;;;;167.98;7.45;;;;;;;2.73;100.00;99015.47;5012400;28;20513;-79
2022/12/23 01:33:19;;;;;;;302.80;12.02;;;;;;;2.75;100.00;99009.28;5025645;28;20113;-84
2022/12/23 01:35:46;;;;;;;284.63;11.63;;;;;;;2.80;100.00;99015.75;5008768;28;20072;-84
2022/12/23 01:38:12;;;;;;;39.05;6.65;;;;;;;2.85;100.00;99000.53;5032401;28;20060;-84
2022/12/23 01:40:43;;;;;;;442.88;13.00;;;;;;;2.94;100.00;99005.94;5029949;28;20478;-84
2022/12/23 01:43:18;;;;;;;255.02;10.27;;;;;;;2.98;100.00;99005.53;5029463;28;20072;-84
2022/12/23 01:45:44;;;;;;;201.93;9.95;;;;;;;2.98;100.00;99012.53;5047079;28;20026;-85
2022/12/23 01:48:25;;;;;;;266.65;10.40;;;;;;;2.97;100.00;99011.75;5028961;28;20418;-84
2022/12/23 01:51:01;;;;;;;98.68;7.55;;;;;;;2.97;100.00;99014.34;5040205;28;20037;-85
2022/12/23 01:53:30;;;;;;;158.00;8.85;;;;;;;2.97;100.00;99000.47;5028975;28;20037;-79
2022/12/23 01:56:04;;;;;;;88.32;8.43;;;;;;;2.94;100.00;98993.72;5041353;28;20029;-79
2022/12/23 01:58:43;;;;;;;83.38;6.30;;;;;;;2.79;100.00;98981.97;5030215;28;20093;-79
2022/12/23 02:03:58;;;;;;;155.98;7.90;;;;;;;2.61;100.00;98959.09;5020758;28;20052;-84
2022/12/23 02:09:22;;;;;;;183.05;8.77;;;;;;;2.65;100.00;98950.06;5026857;28;20381;-84
2022/12/23 02:12:06;;;;;;;179.27;8.20;;;;;;;2.58;100.00;98936.69;5028281;28;20033;-84
2022/12/23 02:18:21;;;;;;;64.38;10.35;;;;;;;2.55;100.00;98930.94;5028771;28;20030;-79
2022/12/23 02:21:05;;;;;;;96.18;13.75;;;;;;;2.45;100.00;98907.41;5025763;28;20550;-79
2022/12/23 02:23:52;;;;;;;77.25;13.55;;;;;;;2.42;100.00;98908.47;5017560;28;20048;-84
2022/12/23 02:26:39;;;;;;;22.48;11.50;;;;;;;2.46;100.00;98903.84;5007480;28;20030;-84
2022/12/23 02:29:39;;;;;;;95.72;14.88;;;;;;;2.52;100.00;98902.47;5008161;28;20091;-84
2022/12/23 02:32:35;;;;;;;75.97;9.23;;;;;;;2.51;100.00;98900.84;5024221;28;20093;-84
2022/12/23 02:35:10;;;;;;;12.20;6.55;;;;;;;2.55;100.00;98897.84;5008288;28;20453;-79
2022/12/23 02:38:01;;;;;;;9.05;6.00;;;;;;;2.63;100.00;98891.94;5002389;28;20171;-84
2022/12/23 02:40:37;;;;;;;13.43;5.85;;;;;;;2.67;100.00;98893.38;5022047;28;20099;-84
2022/12/23 02:43:26;;;;;;;12.55;6.00;;;;;;;2.65;100.00;98886.59;5022494;28;20183;-84
2022/12/23 02:46:03;;;;;;;7.75;4.90;;;;;;;2.66;100.00;98876.03;5016806;28;20107;-84
2022/12/23 02:48:32;;;;;;;6.30;4.35;;;;;;;2.69;100.00;98870.56;4967277;28;20042;-79
2022/12/23 02:51:00;;;;;;;8.68;5.20;;;;;;;2.80;100.00;98868.81;5006686;28;20479;-79
2022/12/23 02:53:32;;;;;;;6.45;4.05;;;;;;;2.85;100.00;98864.84;5015688;28;20049;-84
2022/12/23 02:56:01;;;;;;;6.93;4.43;;;;;;;2.87;100.00;98863.91;5029435;28;20425;-84
2022/12/23 02:58:32;;;;;;;7.30;4.10;;;;;;;2.88;100.00;98855.94;5007064;28;20091;-85
2022/12/23 03:00:59;;;;;;;5.03;3.65;;;;;;;2.84;100.00;98839.72;5023767;28;20033;-84
2022/12/23 03:03:27;;;;;;;6.47;3.25;;;;;;;2.80;100.00;98827.06;5027208;28;20055;-84
2022/12/23 03:05:54;;;;;;;5.15;2.30;;;;;;;2.75;100.00;98819.66;5026399;28;20037;-84
2022/12/23 03:08:30;;;;;;;7.20;2.63;;;;;;;2.75;100.00;98806.59;5010810;28;20037;-79
2022/12/23 03:11:02;;;;;;;7.03;2.60;;;;;;;2.79;100.00;98812.34;5021390;28;20088;-79
2022/12/23 03:13:47;;;;;;;6.35;2.60;;;;;;;2.83;100.00;98811.97;5023289;28;20112;-84
2022/12/23 03:16:26;;;;;;;4.70;2.42;;;;;;;2.97;100.00;98807.31;5021898;28;20029;-84
2022/12/23 03:18:58;;;;;;;4.70;2.03;;;;;;;3.01;100.00;98790.41;5028950;28;20044;-84
2022/12/23 03:21:38;;;;;;;6.50;2.10;;;;;;;3.07;100.00;98787.25;5036892;28;20386;-85
2022/12/23 03:24:28;;;;;;;8.45;2.30;;;;;;;3.13;100.00;98787.66;5028420;28;20036;-84
2022/12/23 03:27:07;;;;;;;6.88;1.85;;;;;;;3.12;100.00;98784.25;5028108;28;20030;-84
2022/12/23 03:29:39;;;;;;;4.60;1.85;;;;;;;3.16;100.00;98776.94;5022220;28;20044;-85
2022/12/23 03:32:06;;;;;;;3.80;1.83;;;;;;;3.21;100.00;98772.97;5025701;28;20128;-84
2022/12/23 03:34:38;;;;;;;10.27;2.00;;;;;;;3.26;100.00;98759.50;5029490;28;20155;-84
2022/12/23 03:37:06;;;;;;;3.88;1.75;;;;;;;3.29;100.00;98753.16;5014495;28;20029;-84
2022/12/23 03:39:45;;;;;;;8.80;2.55;;;;;;;3.33;100.00;98744.06;5028661;28;20044;-85
2022/12/23 03:42:18;;;;;;;5.85;2.20;;;;;;;3.39;100.00;98737.50;5030087;28;20548;-85
2022/12/23 03:44:47;;;;;;;9.43;2.33;;;;;;;3.44;100.00;98743.13;5025944;28;20469;-84
2022/12/23 03:47:19;;;;;;;5.47;1.92;;;;;;;3.49;100.00;98732.25;5044109;28;20033;-83
2022/12/23 03:49:52;;;;;;;3.95;1.98;;;;;;;3.54;100.00;98727.41;5027640;28;20033;-84
2022/12/23 03:52:23;;;;;;;11.18;2.10;;;;;;;3.53;100.00;98715.31;5022729;28;20394;-84
2022/12/23 03:54:59;;;;;;;2.70;1.70;;;;;;;3.57;100.00;98709.66;5020547;28;20481;-84
2022/12/23 03:57:28;;;;;;;;;;;;;;;3.57;100.00;98701.84;5029191;28;20095;-83
2022/12/23 03:59:54;;;;;;;6.90;2.63;;;;;;;3.64;100.00;98701.25;5041184;28;19913;-84
2022/12/23 04:02:22;;;;;;;7.32;1.95;;;;;;;3.71;100.00;98687.47;5026449;28;20084;-84
2022/12/23 04:04:52;;;;;;;11.60;2.17;;;;;;;3.74;100.00;98682.94;5028835;28;20037;-85
2022/12/23 04:07:26;;;;;;;7.00;2.40;;;;;;;3.79;100.00;98680.72;5032128;28;20379;-84
2022/12/23 04:09:53;;;;;;;5.13;2.25;;;;;;;3.82;100.00;98667.38;5013771;28;20033;-84
2022/12/23 04:12:22;;;;;;;7.65;2.10;;;;;;;3.89;100.00;98657.13;5028721;28;20890;-84
2022/12/23 04:14:49;;;;;;;9.60;3.08;;;;;;;3.89;100.00;98657.13;5020444;28;20042;-84
2022/12/23 04:17:15;;;;;;;6.70;1.73;;;;;;;3.92;100.00;98647.22;5031968;28;20056;-84
2022/12/23 04:19:44;;;;;;;3.72;1.30;;;;;;;3.96;100.00;98647.75;5034552;28;20045;-84
2022/12/23 04:22:11;;;;;;;5.22;2.67;;;;;;;4.05;100.00;98646.88;5023051;28;20037;-84
2022/12/23 04:24:38;;;;;;;5.40;1.70;;;;;;;4.11;100.00;98647.28;4974553;28;20072;-84
2022/12/23 04:27:05;;;;;;;5.10;1.73;;;;;;;4.16;100.00;98629.31;5010948;28;20041;-84
2022/12/23 04:29:31;;;;;;;5.10;2.00;;;;;;;4.26;100.00;98624.03;5034455;28;20049;-84
2022/12/23 04:31:57;;;;;;;7.00;2.00;;;;;;;4.34;100.00;98616.28;5030210;28;20037;-85
2022/12/23 04:34:23;;;;;;;3.20;1.52;;;;;;;4.41;100.00;98612.06;5031931;28;20037;-79
2022/12/23 04:36:48;;;;;;;5.30;1.75;;;;;;;4.49;100.00;98605.28;5030146;28;20036;-79
2022/12/23 04:39:14;;;;;;;1.80;1.58;;;;;;;4.47;100.00;98590.53;5025570;28;20057;-84
2022/12/23 04:41:40;;;;;;;2.65;1.60;;;;;;;4.49;100.00;98590.38;5025674;28;20041;-84
2022/12/23 04:44:06;;;;;;;4.63;1.50;;;;;;;4.52;100.00;98570.97;4972512;28;20033;-84
2022/12/23 04:46:31;;;;;;;3.58;1.30;;;;;;;4.51;100.00;98570.13;5032377;28;20165;-84
2022/12/23 04:48:57;;;;;;;2.78;1.52;;;;;;;4.53;100.00;98554.28;5038696;28;20116;-84
2022/12/23 04:51:23;;;;;;;3.85;1.67;;;;;;;4.56;100.00;98556.59;5013312;28;20489;-84
2022/12/23 04:53:49;;;;;;;4.82;1.95;;;;;;;4.56;100.00;98552.19;5029849;28;20040;-85
2022/12/23 04:56:15;;;;;;;5.28;1.80;;;;;;;4.59;100.00;98559.75;5031858;28;20470;-84
2022/12/23 04:58:41;;;;;;;5.68;1.70;;;;;;;4.61;100.00;98554.34;5032647;28;20033;-84
2022/12/23 05:01:09;;;;;;;5.68;1.55;;;;;;;4.59;100.00;98535.34;5015291;28;20071;-84
2022/12/23 05:03:36;;;;;;;3.80;1.88;;;;;;;4.53;100.00;98523.72;5028248;28;20593;-84
2022/12/23 05:06:02;;;;;;;4.60;1.85;;;;;;;4.58;100.00;98526.72;5039817;28;20519;-84
2022/12/23 05:08:29;;;;;;;5.65;2.38;;;;;;;4.61;100.00;98522.13;5022183;28;20132;-85
2022/12/23 05:10:55;;;;;;;11.73;3.10;;;;;;;4.62;100.00;98508.88;5024678;28;20059;-84
2022/12/23 05:13:21;;;;;;;2.97;2.25;;;;;;;4.63;100.00;98502.69;5043622;28;20033;-84
2022/12/23 05:15:51;;;;;;;8.50;3.05;;;;;;;4.70;100.00;98498.47;5030957;28;20033;-85
2022/12/23 05:18:17;;;;;;;5.90;2.55;;;;;;;4.71;100.00;98483.59;5015603;28;20433;-84
2022/12/23 05:20:43;;;;;;;9.43;2.97;;;;;;;4.78;100.00;98481.19;5028144;28;20045;-84
2022/12/23 05:23:09;;;;;;;3.85;3.35;;;;;;;4.85;100.00;98471.72;5037890;28;20470;-84
2022/12/23 05:25:36;;;;;;;5.30;3.05;;;;;;;4.91;100.00;98471.09;5029252;28;20029;-84
2022/12/23 05:28:03;;;;;;;5.90;2.67;;;;;;;4.93;100.00;98463.91;5022844;28;20033;-84
2022/12/23 05:30:29;;;;;;;4.00;2.97;;;;;;;5.00;100.00;98456.22;5028031;28;20508;-84
2022/12/23 05:32:55;;;;;;;4.88;2.85;;;;;;;5.06;100.00;98458.25;5036137;28;20045;-85
2022/12/23 05:35:23;;;;;;;6.78;2.95;;;;;;;5.15;100.00;98451.22;5040481;28;20026;-84
2022/12/23 05:37:49;;;;;;;7.43;3.42;;;;;;;5.20;100.00;98438.47;5014160;28;20072;-84
2022/12/23 05:40:15;;;;;;;6.07;2.42;;;;;;;5.17;100.00;98437.97;5031389;28;20061;-85
2022/12/23 05:42:41;;;;;;;6.28;3.25;;;;;;;5.21;100.00;98437.50;5030590;28;20397;-84
2022/12/23 05:45:07;;;;;;;7.07;3.85;;;;;;;5.25;100.00;98424.91;5025099;28;20175;-85
2022/12/23 05:47:33;;;;;;;6.35;3.90;;;;;;;5.29;100.00;98433.25;5022256;28;20117;-84
2022/12/23 05:49:58;;;;;;;6.78;3.88;;;;;;;5.35;100.00;98422.16;4999690;28;20038;-84
2022/12/23 05:52:24;;;;;;;12.27;3.97;;;;;;;5.42;100.00;98436.22;5030773;28;20045;-84
2022/12/23 05:54:50;;;;;;;5.18;4.05;;;;;;;5.49;100.00;98431.19;5013162;28;20083;-84
2022/12/23 05:57:16;;;;;;;4.40;3.45;;;;;;;5.48;100.00;98416.41;5023071;28;20037;-84
2022/12/23 05:59:41;;;;;;;6.95;4.68;;;;;;;5.54;100.00;98415.75;5030896;28;20037;-83
2022/12/23 06:02:07;;;;;;;9.85;5.38;;;;;;;5.58;100.00;98411.84;5039250;28;20042;-84
2022/12/23 06:04:33;;;;;;;7.07;4.68;;;;;;;5.65;100.00;98412.03;5023253;28;20029;-81
2022/12/23 06:06:59;;;;;;;9.13;4.72;;;;;;;5.65;100.00;98406.78;5011672;28;20025;-81
2022/12/23 06:09:25;;;;;;;7.35;3.67;;;;;;;5.67;100.00;98396.94;5010089;28;20044;-84
2022/12/23 06:11:50;;;;;;;4.90;3.03;;;;;;;5.62;100.00;98373.06;5014866;28;20029;-85
2022/12/23 06:14:16;;;;;;;6.40;3.58;;;;;;;5.64;100.00;98373.69;5019005;28;20498;-84
2022/12/23 06:16:42;;;;;;;10.50;5.45;;;;;;;5.73;100.00;98377.13;5030240;28;20548;-85
2022/12/23 06:19:07;;;;;;;6.07;4.57;;;;;;;5.75;100.00;98372.53;4979791;28;20111;-81
2022/12/23 06:21:33;;;;;;;7.47;3.88;;;;;;;5.75;100.00;98367.28;5030436;28;20029;-81
2022/12/23 06:23:59;;;;;;;5.30;3.47;;;;;;;5.73;100.00;98348.31;5022513;28;20040;-81
2022/12/23 06:26:25;;;;;;;5.55;3.85;;;;;;;5.75;100.00;98333.22;5033789;28;20068;-81
2022/12/23 06:28:51;;;;;;;4.10;3.22;;;;;;;5.75;100.00;98312.25;5026270;28;20390;-81
2022/12/23 06:31:17;;;;;;;5.03;4.45;;;;;;;5.82;100.00;98305.38;5023278;28;20069;-81
2022/12/23 06:33:43;;;;;;;5.07;3.22;;;;;;;5.86;100.00;98300.59;5023200;28;20065;-81
2022/12/23 06:36:09;;;;;;;5.53;4.10;;;;;;;5.93;100.00;98285.84;5009650;28;20037;-81
2022/12/23 06:38:34;;;;;;;11.40;4.45;;;;;;;5.93;100.00;98274.53;5029398;28;20040;-84
2022/12/23 06:41:00;;;;;;;3.63;2.90;;;;;;;5.86;100.00;98281.44;5009816;28;20490;-85
2022/12/23 06:43:26;;;;;;;5.63;3.40;;;;;;;5.90;100.00;98270.44;5025890;28;20043;-85
2022/12/23 06:45:52;;;;;;;3.45;2.33;;;;;;;5.92;100.00;98276.34;5014825;28;20422;-84
2022/12/23 06:48:19;;;;;;;2.25;1.92;;;;;;;5.94;100.00;98260.44;5027786;28;20037;-85
2022/12/23 06:50:45;;;;;;;2.63;1.73;;;;;;;5.94;100.00;98260.44;5014154;28;20120;-85
2022/12/23 06:53:11;;;;;;;3.08;1.42;;;;;;;5.98;100.00;98250.41;5025739;28;20041;-85
2022/12/23 06:55:37;;;;;;;4.05;1.67;;;;;;;5.98;100.00;98248.63;5012346;28;20120;-85
2022/12/23 06:58:03;;;;;;;4.20;1.40;;;;;;;6.01;100.00;98236.97;5029660;28;20036;-82
2022/12/23 07:00:29;;;;;;;2.10;1.08;;;;;;;6.10;100.00;98237.78;5029129;28;20029;-81
2022/12/23 07:02:55;;;;;;;2.28;1.40;;;;;;;6.19;100.00;98237.59;5001344;28;20096;-85
2022/12/23 07:05:21;;;;;;;1.73;1.20;;;;;;;6.25;100.00;98241.34;5033179;28;20025;-85
2022/12/23 07:07:47;;;;;;;4.20;1.20;;;;;;;6.29;100.00;98237.38;5041861;28;20037;-85
2022/12/23 07:10:13;;;;;;;2.95;1.30;;;;;;;6.34;100.00;98234.22;4998045;28;20543;-85
2022/12/23 07:12:38;;;;;;;1.70;1.20;;;;;;;6.43;100.00;98222.69;5014608;28;20084;-81
2022/12/23 07:15:05;;;;;;;2.40;0.90;;;;;;;6.45;100.00;98223.34;4991729;28;20080;-81
2022/12/23 07:17:31;;;;;;;2.42;1.10;;;;;;;6.49;100.00;98231.69;5046187;28;20037;-85
2022/12/23 07:19:57;;;;;;;1.20;0.82;;;;;;;6.55;100.00;98227.56;5027735;28;20042;-85
2022/12/23 07:22:23;;;;;;;1.30;0.95;;;;;;;6.53;100.00;98217.22;5024605;28;20124;-85
2022/12/23 07:24:49;;;;;;;2.28;0.68;;;;;;;6.56;100.00;98210.84;5013522;28;20044;-86
2022/12/23 07:27:15;;;;;;;1.10;0.80;;;;;;;6.57;100.00;98199.34;5030507;28;20386;-85
2022/12/23 07:29:41;;;;;;;0.95;0.65;;;;;;;6.55;100.00;98186.38;5029844;28;20441;-84
2022/12/23 07:32:07;;;;;;;2.20;0.77;;;;;;;6.56;100.00;98189.84;5026281;28;20156;-86
2022/12/23 07:34:33;;;;;;;1.83;0.50;;;;;;;6.61;100.00;98192.75;5037715;28;20397;-86
2022/12/23 07:36:58;;;;;;;0.30;0.30;;;;;;;6.60;100.00;98187.66;5041519;28;20038;-86
2022/12/23 07:39:24;;;;;;;0.45;0.32;;;;;;;6.69;100.00;98183.97;5031003;28;20210;-81
2022/12/23 07:41:50;;;;;;;0.55;0.40;;;;;;;6.77;100.00;98180.50;5038622;28;20041;-81
2022/12/23 07:44:17;;;;;;;0.85;0.40;;;;;;;6.79;100.00;98186.38;5028546;28;20029;-87
2022/12/23 07:46:43;;;;;;;1.05;0.40;;;;;;;6.84;100.00;98202.44;5023932;28;20107;-86
2022/12/23 07:49:09;;;;;;;0.30;0.30;;;;;;;6.86;100.00;98194.38;5026158;28;20413;-86
2022/12/23 07:51:34;;;;;;;0.63;0.30;;;;;;;6.89;100.00;98180.91;4999773;28;20069;-86
2022/12/23 07:54:01;;;;;;;0.77;0.30;;;;;;;6.91;100.00;98184.19;5037184;28;20056;-86
2022/12/23 07:56:27;;;;;;;2.60;0.40;;;;;;;6.92;100.00;98177.91;5023900;28;20037;-87
2022/12/23 07:58:53;;;;;;;0.70;0.30;;;;;;;6.95;100.00;98186.25;5025790;28;20033;-87
2022/12/23 08:01:20;;;;;;;0.47;0.28;;;;;;;6.97;100.00;98186.09;5019101;28;20033;-87
2022/12/23 08:03:46;;;;;;;0.55;0.30;;;;;;;6.96;100.00;98179.19;5022588;28;20064;-86
2022/12/23 08:06:14;;;;;;;0.30;0.30;;;;;;;7.03;100.00;98182.75;5039132;28;20485;-87
2022/12/23 08:08:45;;;;;;;0.50;0.40;;;;;;;7.04;100.00;98179.13;5018755;28;20034;-87
2022/12/23 08:11:12;;;;;;;1.17;0.30;;;;;;;7.04;100.00;98170.44;5003653;28;20033;-84
2022/12/23 08:13:41;;;;;;;0.65;0.30;;;;;;;7.07;100.00;98168.25;5017839;28;20474;-85
2022/12/23 08:16:07;;;;;;;0.20;0.20;;;;;;;7.06;100.00;98161.38;5021752;28;20510;-86
2022/12/23 08:18:35;;;;;;;0.82;0.30;;;;;;;7.09;100.00;98162.81;5018622;28;20033;-86
2022/12/23 08:21:07;;;;;;;3.50;0.30;;;;;;;7.13;100.00;98164.13;5037205;28;20029;-87
2022/12/23 08:23:33;;;;;;;0.40;0.20;;;;;;;7.11;100.00;98163.47;5025022;28;20040;-86
2022/12/23 08:26:05;;;;;;;0.40;0.20;;;;;;;7.16;100.00;98168.19;4994798;28;20671;-86
2022/12/23 08:28:32;;;;;;;1.38;0.40;;;;;;;7.16;100.00;98166.38;5020099;28;20115;-85
2022/12/23 08:31:11;;;;;;;0.50;0.30;;;;;;;7.18;100.00;98160.97;5022954;28;20091;-86
2022/12/23 08:33:39;;;;;;;0.80;0.20;;;;;;;7.19;100.00;98163.41;5025299;28;20086;-81
2022/12/23 08:36:07;;;;;;;0.10;0.10;;;;;;;7.22;100.00;98158.75;5021340;28;20109;-81
2022/12/23 08:38:34;;;;;;;0.60;0.10;;;;;;;7.23;100.00;98158.59;5020819;28;20034;-86
2022/12/23 08:41:00;;;;;;;0.10;0.03;;;;;;;7.25;100.00;98146.09;5032599;28;20075;-86
2022/12/23 08:43:26;;;;;;;0.10;0.10;;;;;;;7.28;100.00;98152.78;5011449;28;20037;-85
2022/12/23 08:45:53;;;;;;;1.48;0.20;;;;;;;7.32;100.00;98154.91;5009055;28;20103;-86
2022/12/23 08:48:19;;;;;;;0.20;0.10;;;;;;;7.35;100.00;98160.78;5007646;28;20040;-86
2022/12/23 08:50:45;;;;;;;0.25;0.15;;;;;;;7.35;100.00;98156.34;5025471;28;20108;-86
2022/12/23 08:53:12;;;;;;;0.17;0.10;;;;;;;7.35;100.00;98150.25;5011460;28;20045;-86
2022/12/23 08:55:44;;;;;;;2.25;0.17;;;;;;;7.37;100.00;98151.75;5025504;28;20076;-86
2022/12/23 08:58:12;;;;;;;0.10;0.10;;;;;;;7.37;100.00;98157.00;5020618;28;20029;-87
2022/12/23 09:00:38;;;;;;;0.10;0.10;;;;;;;7.38;100.00;98149.91;5039951;28;20033;-86
2022/12/23 09:03:04;;;;;;;0.20;0.20;;;;;;;7.38;100.00;98149.91;5027983;28;20101;-86
2022/12/23 09:05:30;;;;;;;1.90;0.20;;;;;;;7.46;100.00;98155.06;5013138;28;20045;-86
2022/12/23 09:07:56;;;;;;;0.30;0.20;;;;;;;7.47;100.00;98150.66;5014340;28;20118;-86
2022/12/23 09:10:22;;;;;;;0.10;0.10;;;;;;;7.48;100.00;98152.28;5011054;28;20095;-86
2022/12/23 09:12:48;;;;;;;4.75;0.25;;;;;;;7.49;100.00;98149.47;5029149;28;20029;-86
2022/12/23 09:15:14;;;;;;;0.15;0.10;;;;;;;7.52;100.00;98154.34;5030468;28;20609;-86
2022/12/23 09:17:40;;;;;;;0.20;0.20;;;;;;;7.54;100.00;98146.28;5026156;28;20120;-86
2022/12/23 09:20:07;;;;;;;0.40;0.30;;;;;;;7.56;100.00;98152.97;5045484;28;20044;-86
2022/12/23 09:22:33;;;;;;;0.68;0.20;;;;;;;7.58;100.00;98150.16;5029207;28;20048;-86
2022/12/23 09:24:58;;;;;;;0.30;0.20;;;;;;;7.59;100.00;98143.09;5013510;28;20479;-86
2022/12/23 09:27:24;;;;;;;0.70;0.30;;;;;;;7.60;100.00;98147.38;5025483;28;20702;-86
2022/12/23 09:29:50;;;;;;;2.05;0.30;;;;;;;7.61;100.00;98139.31;5026544;28;20609;-86
2022/12/23 09:32:16;;;;;;;0.25;0.25;;;;;;;7.61;100.00;98139.31;5027627;28;20116;-85
2022/12/23 09:34:42;;;;;;;0.98;0.60;;;;;;;7.65;100.00;98147.63;5025159;28;20045;-86
2022/12/23 09:37:07;;;;;;;0.68;0.30;;;;;;;7.65;100.00;98152.91;5010461;28;20026;-86
2022/12/23 09:39:33;;;;;;;0.60;0.43;;;;;;;7.64;100.00;98146.84;5021926;28;20038;-86
2022/12/23 09:42:12;;;;;;;0.47;0.30;;;;;;;7.67;100.00;98143.84;5041150;28;20064;-86
2022/12/23 09:44:47;;;;;;;0.82;0.35;;;;;;;7.67;100.00;98146.47;5044911;28;20125;-86
2022/12/23 09:47:18;;;;;;;0.50;0.20;;;;;;;7.66;100.00;98149.28;5027785;28;20038;-86
2022/12/23 09:49:50;;;;;;;0.47;0.20;;;;;;;7.66;100.00;98149.28;5026745;28;20537;-86
2022/12/23 09:52:40;;;;;;;0.20;0.20;;;;;;;7.71;100.00;98154.78;5029405;28;20460;-86
2022/12/23 09:55:10;;;;;;;0.20;0.20;;;;;;;7.74;100.00;98151.00;5020952;28;20056;-86
2022/12/23 09:57:47;;;;;;;0.10;0.10;;;;;;;7.76;100.00;98151.63;5044075;28;20060;-85
2022/12/23 10:00:17;;;;;;;0.40;0.20;;;;;;;7.78;100.00;98144.38;5045092;28;20048;-86
2022/12/23 10:02:55;;;;;;;1.08;0.20;;;;;;;7.85;100.00;98144.47;5024893;28;20054;-86
2022/12/23 10:05:38;;;;;;;1.15;0.30;;;;;;;7.85;100.00;98152.34;5041242;28;20034;-86
2022/12/23 10:08:11;;;;;;;1.90;0.20;;;;;;;7.90;100.00;98144.72;5026403;28;20121;-86
2022/12/23 10:10:45;;;;;;;0.40;0.25;;;;;;;7.92;100.00;98150.59;5024250;28;20123;-87
2022/12/23 10:13:44;;;;;;;1.02;0.20;;;;;;;7.94;100.00;98148.63;5030337;28;20037;-86
2022/12/23 10:16:16;;;;;;;1.27;0.22;;;;;;;7.97;100.00;98148.25;5012944;28;20033;-87
2022/12/23 10:18:42;;;;;;;0.20;0.20;;;;;;;7.94;100.00;98152.06;5024160;28;20026;-87
2022/12/23 10:21:19;;;;;;;1.98;0.30;;;;;;;7.98;100.00;98152.50;5040487;28;20113;-87
2022/12/23 10:23:52;;;;;;;0.52;0.47;;;;;;;8.02;100.00;98152.94;5041143;28;20433;-86
2022/12/23 10:26:33;;;;;;;0.57;0.20;;;;;;;8.02;100.00;98152.94;5013775;28;20045;-87
2022/12/23 10:29:11;;;;;;;0.93;0.40;;;;;;;8.05;100.00;98153.41;5041421;28;20110;-86
2022/12/23 10:31:46;;;;;;;2.70;1.33;;;;;;;8.07;100.00;98161.91;5012654;28;20394;-85
2022/12/23 10:34:32;;;;;;;2.45;0.77;;;;;;;8.05;100.00;98174.44;5044836;28;20052;-86
2022/12/23 10:37:24;;;;;;;0.43;0.30;;;;;;;8.02;100.00;98168.72;5014344;28;20060;-86
2022/12/23 10:40:08;;;;;;;1.35;0.80;;;;;;;8.05;100.00;98181.53;5010142;28;20462;-86
2022/12/23 10:42:49;;;;;;;1.60;1.40;;;;;;;8.07;100.00;98180.31;5024965;28;20044;-83
2022/12/23 10:45:24;;;;;;;0.50;0.40;;;;;;;8.09;100.00;98179.34;5008622;28;20048;-86
2022/12/23 10:47:59;;;;;;;3.67;2.78;;;;;;;8.09;100.00;98192.50;5009196;28;20037;-86
2022/12/23 10:50:38;;;;;;;1.70;0.68;;;;;;;8.12;100.00;98186.88;5021296;28;20029;-86
2022/12/23 10:53:09;;;;;;;3.20;2.50;;;;;;;8.17;100.00;98206.34;5016666;28;20508;-86
2022/12/23 10:55:39;;;;;;;6.18;5.22;;;;;;;8.19;100.00;98208.81;4963432;28;20044;-86
2022/12/23 10:58:17;;;;;;;6.90;5.82;;;;;;;8.24;100.00;98218.78;5026412;28;20029;-85
2022/12/23 11:00:58;;;;;;;10.23;7.55;;;;;;;8.24;100.00;98211.69;5022182;28;20405;-86
2022/12/23 11:03:44;;;;;;;4.53;2.13;;;;;;;8.25;100.00;98212.53;4964893;28;20088;-87
2022/12/23 11:06:11;;;;;;;3.47;2.70;;;;;;;8.28;100.00;98220.84;5023303;28;20497;-87
2022/12/23 11:08:38;;;;;;;1.92;1.55;;;;;;;8.31;100.00;98220.47;5025727;28;20029;-87
2022/12/23 11:11:06;;;;;;;4.38;3.30;;;;;;;8.37;100.00;98232.09;5023706;28;20032;-86
2022/12/23 11:13:37;;;;;;;8.05;2.60;;;;;;;8.40;100.00;98233.53;5022046;28;20036;-86
2022/12/23 11:16:25;;;;;;;3.75;1.33;;;;;;;8.40;100.00;98234.38;5032424;28;20477;-85
2022/12/23 11:19:12;;;;;;;5.18;0.52;;;;;;;8.44;100.00;98243.50;5041339;28;20041;-87
2022/12/23 11:21:53;;;;;;;3.65;0.57;;;;;;;8.43;100.00;98244.53;5041716;28;20043;-86
2022/12/23 11:24:21;;;;;;;8.05;0.77;;;;;;;8.45;100.00;98244.34;5017836;28;20026;-86
2022/12/23 11:27:09;;;;;;;3.53;0.55;;;;;;;8.49;100.00;98252.69;4988680;28;20441;-86
2022/12/23 11:29:38;;;;;;;6.70;1.10;;;;;;;8.50;100.00;98252.50;5004872;28;20069;-85
2022/12/23 11:32:17;;;;;;;10.00;1.17;;;;;;;8.52;100.00;98249.69;5029671;28;20478;-84
2022/12/23 11:34:46;;;;;;;19.02;1.27;;;;;;;8.56;100.00;98261.50;4998655;28;20110;-85
2022/12/23 11:37:28;;;;;;;10.80;1.50;;;;;;;8.59;100.00;98260.31;5015048;28;20040;-86
2022/12/23 11:39:54;;;;;;;15.60;1.23;;;;;;;8.59;100.00;98258.50;4996389;28;20033;-84
2022/12/23 11:42:27;;;;;;;13.15;1.50;;;;;;;8.64;100.00;98268.47;5027959;28;20156;-86
2022/12/23 11:44:54;;;;;;;16.02;2.03;;;;;;;8.66;100.00;98275.16;5023776;28;20381;-86
2022/12/23 11:47:35;;;;;;;13.55;2.60;;;;;;;8.71;100.00;98274.66;5006580;28;20044;-85
2022/12/23 11:50:22;;;;;;;16.77;2.10;;;;;;;8.73;100.00;98277.88;5021942;28;20044;-86
2022/12/23 11:52:51;;;;;;;16.90;2.78;;;;;;;8.76;100.00;98287.25;4991507;28;20037;-85
2022/12/23 11:55:25;;;;;;;22.73;4.68;;;;;;;8.80;100.00;98293.78;5022425;28;20030;-85
2022/12/23 11:57:51;;;;;;;18.27;2.38;;;;;;;8.78;100.00;98286.06;5002831;28;20087;-85
2022/12/23 12:00:36;;;;;;;13.80;1.90;;;;;;;8.81;100.00;98295.38;4989822;28;20037;-85
2022/12/23 12:03:05;;;;;;;15.80;2.55;;;;;;;8.83;100.00;98298.66;5009340;28;20123;-84
2022/12/23 12:05:45;;;;;;;16.58;2.47;;;;;;;8.87;100.00;98310.44;5015390;28;20045;-86
2022/12/23 12:08:14;;;;;;;14.50;3.33;;;;;;;8.91;100.00;98309.09;5007194;28;20065;-85